EDT,Max TemperatureF,Mean TemperatureF,Min TemperatureF,Max Dew PointF,MeanDew PointF,Min DewpointF,Max Humidity, Mean Humidity, Min Humidity, Max Sea Level PressureIn, Mean Sea Level PressureIn, Min Sea Level PressureIn, Max VisibilityMiles, Mean VisibilityMiles, Min VisibilityMiles, Max Wind SpeedMPH, Mean Wind SpeedMPH, Max Gust SpeedMPH,PrecipitationIn, CloudCover, Events, WindDirDegrees
2013-8-1,84,78,72,75,72,71,100,85,69,30.03,29.97,29.92,10,7,1,16,5,22,1.18,6,Rain-Thunderstorm,220
2013-8-2,87,81,74,76,74,72,100,83,65,30.04,30.00,29.93,10,9,0,17,7,23,0.24,4,Rain,226
2013-8-3,90,83,76,76,74,71,100,80,59,30.05,30.01,29.93,10,10,10,14,6,18,0.00,2,,201
2013-8-4,91,80,69,76,71,65,97,77,56,30.03,29.94,29.89,10,10,9,21,6,23,T,2,,287
2013-8-5,84,74,64,66,62,57,93,68,43,30.09,30.05,30.00,10,10,10,13,5,23,0.00,1,,99
2013-8-6,83,74,65,67,65,62,93,74,54,30.08,30.05,30.00,10,10,10,9,3,15,T,0,,122
2013-8-7,85,76,67,72,69,66,93,77,61,30.10,30.07,30.04,10,10,10,13,5,17,0.00,1,,87
2013-8-8,89,80,71,76,73,70,100,80,59,30.08,30.05,30.02,10,10,7,12,3,16,T,2,Rain-Thunderstorm,148
2013-8-9,90,84,77,76,74,72,94,77,59,30.11,30.07,30.04,10,10,2,25,9,29,0.09,2,Rain,216
2013-8-10,93,85,76,76,75,73,94,75,56,30.12,30.09,30.05,10,10,10,18,9,24,0.00,1,,221
2013-8-11,94,86,77,78,75,73,91,72,52,30.13,30.08,30.04,10,9,0,15,7,20,0.43,2,Fog-Rain-Thunderstorm,221
2013-8-12,95,86,76,76,73,69,94,72,49,30.07,30.01,29.95,10,10,10,20,7,23,0.00,2,Thunderstorm,249
2013-8-13,92,83,74,79,76,74,97,81,64,29.96,29.89,29.81,10,10,2,26,10,32,0.44,2,Rain-Thunderstorm,223
2013-8-14,83,75,67,77,71,62,94,82,69,30.05,29.90,29.81,10,8,1,18,9,24,0.52,7,Rain-Thunderstorm,322
2013-8-15,71,67,63,66,63,61,93,86,78,30.11,30.08,30.04,10,7,2,13,9,18,0.83,8,Rain,25
2013-8-16,76,71,65,70,67,63,100,91,82,30.12,30.09,30.05,10,10,5,14,8,16,0.10,8,Rain,22
2013-8-17,83,76,68,74,71,66,100,87,74,30.14,30.10,30.05,10,7,0,13,6,17,1.77,7,Fog-Rain,45
2013-8-18,89,80,71,75,72,69,100,78,55,30.20,30.16,30.13,10,9,6,10,4,12,0.00,4,,244
2013-8-19,83,78,73,75,74,72,100,90,79,30.16,30.12,30.07,10,6,0,18,5,22,1.78,5,Fog-Rain,41
2013-8-20,85,79,72,75,73,71,100,87,74,30.18,30.13,30.09,10,5,0,12,3,15,0.62,6,Fog-Rain-Thunderstorm,50
2013-8-21,88,80,72,76,73,71,100,82,63,30.22,30.18,30.12,10,7,0,12,3,15,0.00,3,Fog,128
2013-8-22,87,79,71,75,72,66,100,83,65,30.15,30.09,30.04,10,9,1,25,4,31,0.57,3,Rain-Thunderstorm,253
2013-8-23,91,82,72,75,72,69,100,76,52,30.03,29.99,29.93,10,10,7,18,6,24,0.10,1,Thunderstorm,249
2013-8-24,84,76,67,70,67,63,97,74,51,30.25,30.12,30.02,10,10,7,17,10,22,T,5,Thunderstorm,19
2013-8-25,83,73,63,65,62,61,93,74,54,30.33,30.28,30.24,10,10,10,20,10,24,0.00,1,,32
2013-8-26,84,73,62,66,61,56,93,65,37,30.28,30.22,30.13,10,10,10,10,4,15,0.00,0,,27
2013-8-27,86,75,64,66,64,62,93,69,45,30.14,30.06,29.99,10,10,10,15,5,20,0.00,0,,221
2013-8-28,91,82,72,73,69,64,84,68,52,30.02,29.97,29.92,10,10,10,13,8,16,T,1,,230
2013-8-29,91,82,72,76,72,68,88,74,59,29.97,29.91,29.86,10,10,8,18,8,24,0.01,3,Rain,319
2013-8-30,84,76,68,72,69,66,97,78,58,30.04,29.99,29.97,10,9,6,13,6,17,0.00,4,,48
2013-8-31,88,78,68,74,70,66,100,81,61,29.99,29.95,29.91,10,6,0,12,4,16,0.00,4,Fog,131